Terminal Aerodrome Forecast
Issued by NWS Charleston, WV

Current Version | Previous Version | Text Only | Print | Product List | Glossary Off
Versions: 1 2 3 4 5 6 7 8 9 10 11 12 13 14 15 16 17 18 19 20 21 22 23 24 25 26 27

443
FTUS41 KRLX 151127
TAFCRW
TAF
KCRW 151127Z 1512/1612 VRB02KT 3SM BR OVC004
     FM151400 VRB02KT 4SM BR OVC006
     FM151600 VRB02KT 6SM BR BKN010
     FM152300 VRB02KT P6SM OVC024
     FM160400 VRB02KT 5SM -RA BR OVC015=

USA.gov is the U.S. government's official web portal to all federal, state and local government web resources and services.